Time;durP1;ratioP1;P1;durP2;ratioP2;P2;SDS_P1;SDS_P2;PMS_P1;PMS_P2;Temp;Humidity;BMP_temperature;BMP_pressure;BME280_temperature;BME280_humidity;BME280_pressure;Samples;Min_cycle;Max_cycle;Signal;HPM_P1;HPM_P2
2022/09/09 00:00:35;;;;;;;15.60;8.35;;;;;;;;;;4936124;29;20051;-80
2022/09/09 00:03:27;;;;;;;16.13;8.15;;;;;;;;;;4936401;29;20056;-81
2022/09/09 00:06:12;;;;;;;13.93;9.07;;;;;;;;;;4936501;29;20048;-81
2022/09/09 00:09:06;;;;;;;14.63;8.18;;;;;;;;;;4936412;29;20417;-80
2022/09/09 00:11:58;;;;;;;12.98;8.63;;;;;;;;;;4935956;29;20513;-81
2022/09/09 00:14:54;;;;;;;13.10;8.25;;;;;;;;;;4936136;29;20043;-80
2022/09/09 00:18:03;;;;;;;15.30;9.10;;;;;;;;;;4936354;29;20051;-82
2022/09/09 00:21:10;;;;;;;13.25;7.95;;;;;;;;;;4934024;29;20043;-82
2022/09/09 00:23:55;;;;;;;14.57;8.77;;;;;;;;;;4935402;29;20044;-81
2022/09/09 00:26:50;;;;;;;14.23;8.57;;;;;;;;;;4934047;29;20063;-81
2022/09/09 00:29:41;;;;;;;13.73;8.45;;;;;;;;;;4926740;29;20047;-82
2022/09/09 00:32:31;;;;;;;12.50;8.35;;;;;;;;;;4927181;29;20044;-80
2022/09/09 00:35:18;;;;;;;13.45;7.28;;;;;;;;;;4927462;29;20409;-80
2022/09/09 00:38:13;;;;;;;13.70;7.32;;;;;;;;;;4935958;29;20386;-81
2022/09/09 00:41:03;;;;;;;12.30;6.82;;;;;;;;;;4930077;29;20413;-81
2022/09/09 00:44:15;;;;;;;14.85;7.43;;;;;;;;;;4939964;29;20051;-81
2022/09/09 00:47:35;;;;;;;11.68;6.72;;;;;;;;;;4945333;29;20051;-81
2022/09/09 00:50:39;;;;;;;13.35;7.50;;;;;;;;;;4924535;29;20056;-80
2022/09/09 00:53:33;;;;;;;11.80;7.55;;;;;;;;;;4926083;29;20056;-81
2022/09/09 00:56:25;;;;;;;11.85;7.45;;;;;;;;;;4931877;29;20056;-81
2022/09/09 00:59:23;;;;;;;10.82;7.07;;;;;;;;;;4946134;29;20394;-80
2022/09/09 01:02:34;;;;;;;10.52;7.22;;;;;;;;;;4931595;29;20047;-80
2022/09/09 01:05:33;;;;;;;11.30;7.45;;;;;;;;;;4939574;29;20035;-81
2022/09/09 01:08:34;;;;;;;12.85;7.78;;;;;;;;;;4945800;29;20059;-81
2022/09/09 01:11:47;;;;;;;13.73;8.30;;;;;;;;;;4931490;29;20055;-81
2022/09/09 01:14:34;;;;;;;12.15;7.65;;;;;;;;;;4931319;29;20498;-82
2022/09/09 01:17:24;;;;;;;12.90;7.35;;;;;;;;;;4931753;29;20059;-81
2022/09/09 01:20:23;;;;;;;13.18;7.20;;;;;;;;;;4931402;29;20044;-81
2022/09/09 01:23:29;;;;;;;12.15;7.40;;;;;;;;;;4931459;29;20056;-80
2022/09/09 01:26:42;;;;;;;13.05;7.43;;;;;;;;;;4939511;29;20043;-80
2022/09/09 01:29:35;;;;;;;13.57;7.55;;;;;;;;;;4931057;29;20039;-80
2022/09/09 01:32:52;;;;;;;12.65;7.35;;;;;;;;;;4931116;29;20047;-80
2022/09/09 01:35:46;;;;;;;16.65;9.02;;;;;;;;;;4931562;29;20401;-80
2022/09/09 01:38:32;;;;;;;16.40;8.35;;;;;;;;;;4931046;29;20394;-81
2022/09/09 01:41:18;;;;;;;14.55;8.18;;;;;;;;;;4931300;29;20052;-80
2022/09/09 01:44:34;;;;;;;18.90;8.48;;;;;;;;;;4937619;29;20043;-79
2022/09/09 01:47:20;;;;;;;16.17;8.25;;;;;;;;;;4929240;29;20051;-81
2022/09/09 01:50:20;;;;;;;14.10;8.65;;;;;;;;;;4931221;29;20398;-80
2022/09/09 01:53:05;;;;;;;14.30;8.43;;;;;;;;;;4939532;29;20060;-81
2022/09/09 01:56:18;;;;;;;14.57;8.20;;;;;;;;;;4928615;29;20043;-80
2022/09/09 01:59:24;;;;;;;13.52;7.90;;;;;;;;;;4928804;29;20498;-80
2022/09/09 02:02:18;;;;;;;12.40;7.95;;;;;;;;;;4928284;29;20154;-80
2022/09/09 02:05:15;;;;;;;11.98;7.32;;;;;;;;;;4928111;29;20044;-79
2022/09/09 02:08:07;;;;;;;16.05;7.70;;;;;;;;;;4928409;29;20043;-79
2022/09/09 02:11:06;;;;;;;15.63;7.63;;;;;;;;;;4930526;29;20051;-79
2022/09/09 02:14:10;;;;;;;14.65;7.90;;;;;;;;;;4945079;29;20047;-80
2022/09/09 02:17:07;;;;;;;15.38;7.97;;;;;;;;;;4930279;29;20051;-79
2022/09/09 02:20:14;;;;;;;15.65;8.20;;;;;;;;;;4930348;29;20043;-77
2022/09/09 02:23:08;;;;;;;18.33;8.10;;;;;;;;;;4930154;29;20489;-78
2022/09/09 02:25:57;;;;;;;11.70;7.30;;;;;;;;;;4930024;29;20048;-79
2022/09/09 02:28:44;;;;;;;12.60;7.35;;;;;;;;;;4930219;29;20494;-79
2022/09/09 02:31:31;;;;;;;15.00;7.68;;;;;;;;;;4937999;29;20397;-79
2022/09/09 02:34:24;;;;;;;15.05;7.53;;;;;;;;;;4938009;29;20039;-78
2022/09/09 02:37:11;;;;;;;12.85;7.57;;;;;;;;;;4929905;29;20077;-79
2022/09/09 02:39:58;;;;;;;10.80;6.97;;;;;;;;;;4930079;29;20052;-79
2022/09/09 02:42:46;;;;;;;16.02;8.00;;;;;;;;;;4930084;29;20040;-79
2022/09/09 02:45:42;;;;;;;12.13;7.38;;;;;;;;;;4929830;29;20394;-78
2022/09/09 02:48:54;;;;;;;12.10;7.78;;;;;;;;;;4938093;29;20044;-79
2022/09/09 02:52:07;;;;;;;15.13;7.57;;;;;;;;;;4942289;29;20048;-78
2022/09/09 02:54:59;;;;;;;12.45;7.00;;;;;;;;;;4929263;29;20398;-78
2022/09/09 02:57:47;;;;;;;16.67;7.47;;;;;;;;;;4929567;29;20040;-78
2022/09/09 03:00:35;;;;;;;16.88;7.65;;;;;;;;;;4929383;29;20430;-79
2022/09/09 03:03:21;;;;;;;13.43;7.15;;;;;;;;;;4929667;29;20056;-79
2022/09/09 03:06:11;;;;;;;17.38;7.10;;;;;;;;;;4929303;29;20048;-78
2022/09/09 03:09:00;;;;;;;12.48;7.07;;;;;;;;;;4929457;29;20039;-78
2022/09/09 03:11:47;;;;;;;17.30;7.43;;;;;;;;;;4929714;29;20059;-78
2022/09/09 03:14:35;;;;;;;13.45;7.47;;;;;;;;;;4929168;29;20489;-79
2022/09/09 03:17:20;;;;;;;19.40;7.38;;;;;;;;;;4929174;29;20044;-79
2022/09/09 03:20:12;;;;;;;10.68;7.03;;;;;;;;;;4937397;29;20413;-80
2022/09/09 03:23:00;;;;;;;12.57;7.05;;;;;;;;;;4929301;29;20048;-78
2022/09/09 03:25:52;;;;;;;13.98;7.32;;;;;;;;;;4929218;29;20052;-79
2022/09/09 03:28:44;;;;;;;15.18;7.38;;;;;;;;;;4929269;29;20044;-78
2022/09/09 03:31:34;;;;;;;12.73;7.38;;;;;;;;;;4929002;29;20047;-79
2022/09/09 03:34:19;;;;;;;14.57;8.00;;;;;;;;;;4936746;29;20039;-79
2022/09/09 03:37:05;;;;;;;13.25;7.30;;;;;;;;;;4928900;29;20397;-79
2022/09/09 03:39:54;;;;;;;13.80;8.15;;;;;;;;;;4928858;29;20405;-78
2022/09/09 03:42:41;;;;;;;15.40;8.23;;;;;;;;;;4929037;29;20047;-79
2022/09/09 03:45:26;;;;;;;19.02;8.68;;;;;;;;;;4922557;29;20051;-78
2022/09/09 03:48:11;;;;;;;20.00;9.23;;;;;;;;;;4928745;29;20047;-78
2022/09/09 03:51:00;;;;;;;18.23;8.85;;;;;;;;;;4928573;29;20069;-78
2022/09/09 03:53:46;;;;;;;14.80;8.75;;;;;;;;;;4922554;29;20055;-79
2022/09/09 03:56:32;;;;;;;17.80;9.10;;;;;;;;;;4928367;29;20052;-78
2022/09/09 03:59:18;;;;;;;18.63;8.95;;;;;;;;;;4928293;29;20055;-78
2022/09/09 04:02:04;;;;;;;14.80;8.95;;;;;;;;;;4942811;29;20490;-78
2022/09/09 04:04:49;;;;;;;15.23;8.73;;;;;;;;;;4936214;29;20048;-78
2022/09/09 04:07:36;;;;;;;18.38;8.35;;;;;;;;;;4928728;29;20043;-79
2022/09/09 04:10:21;;;;;;;19.83;8.38;;;;;;;;;;4936480;29;20055;-78
2022/09/09 04:13:07;;;;;;;15.93;7.68;;;;;;;;;;4936434;29;20044;-78
2022/09/09 04:15:54;;;;;;;14.98;8.48;;;;;;;;;;4931752;29;20478;-78
2022/09/09 04:18:41;;;;;;;13.48;8.25;;;;;;;;;;4934495;29;20051;-78
2022/09/09 04:21:27;;;;;;;11.85;7.88;;;;;;;;;;4935056;29;20048;-78
2022/09/09 04:24:12;;;;;;;19.73;9.65;;;;;;;;;;4934574;29;20490;-78
2022/09/09 04:26:58;;;;;;;17.88;8.63;;;;;;;;;;4934613;29;20052;-78
2022/09/09 04:29:43;;;;;;;23.38;9.65;;;;;;;;;;4934275;29;20039;-78
2022/09/09 04:32:29;;;;;;;14.82;8.88;;;;;;;;;;4942475;29;20497;-79
2022/09/09 04:35:15;;;;;;;20.10;8.65;;;;;;;;;;4933912;29;20044;-78
2022/09/09 04:38:02;;;;;;;15.90;8.50;;;;;;;;;;4934345;29;20047;-78
2022/09/09 04:40:51;;;;;;;23.20;8.77;;;;;;;;;;4934634;29;20039;-79
2022/09/09 04:43:39;;;;;;;14.90;8.02;;;;;;;;;;4934263;29;20055;-79
2022/09/09 04:46:26;;;;;;;13.13;7.82;;;;;;;;;;4933814;29;20051;-80
2022/09/09 04:49:11;;;;;;;22.23;8.63;;;;;;;;;;4935003;29;20044;-80
2022/09/09 04:51:57;;;;;;;20.30;9.20;;;;;;;;;;4932545;29;20052;-79
2022/09/09 04:54:44;;;;;;;14.27;8.18;;;;;;;;;;4934452;29;20055;-79
2022/09/09 04:57:32;;;;;;;19.13;8.07;;;;;;;;;;4942485;29;20077;-78
2022/09/09 05:00:18;;;;;;;17.77;9.05;;;;;;;;;;4934211;29;20043;-79
2022/09/09 05:03:05;;;;;;;23.42;9.60;;;;;;;;;;4934430;29;20051;-79
2022/09/09 05:05:50;;;;;;;16.27;8.73;;;;;;;;;;4934072;29;20059;-79
2022/09/09 05:08:37;;;;;;;15.07;8.75;;;;;;;;;;4933812;29;20399;-79
2022/09/09 05:11:27;;;;;;;14.15;9.13;;;;;;;;;;4941977;29;20051;-81
2022/09/09 05:14:20;;;;;;;17.98;9.63;;;;;;;;;;4934027;29;20485;-80
2022/09/09 05:17:06;;;;;;;19.25;10.20;;;;;;;;;;4941570;29;20055;-80
2022/09/09 05:19:55;;;;;;;16.17;9.98;;;;;;;;;;4933511;29;20051;-80
2022/09/09 05:22:40;;;;;;;18.02;10.23;;;;;;;;;;4934628;29;20052;-81
2022/09/09 05:25:26;;;;;;;18.02;9.15;;;;;;;;;;4933951;29;20051;-81
2022/09/09 05:28:13;;;;;;;17.17;9.27;;;;;;;;;;4930908;29;20035;-81
2022/09/09 05:31:00;;;;;;;16.20;8.25;;;;;;;;;;4937995;29;20055;-81
2022/09/09 05:33:49;;;;;;;13.35;8.40;;;;;;;;;;4931724;29;20462;-81
2022/09/09 05:36:34;;;;;;;16.10;8.88;;;;;;;;;;4931567;29;20047;-81
2022/09/09 05:39:20;;;;;;;16.35;8.20;;;;;;;;;;4932238;29;20047;-81
2022/09/09 05:42:06;;;;;;;17.10;8.13;;;;;;;;;;4947536;29;20044;-82
2022/09/09 05:44:54;;;;;;;12.18;8.35;;;;;;;;;;4933466;29;20052;-81
2022/09/09 05:47:40;;;;;;;16.75;8.43;;;;;;;;;;4934401;29;20478;-81
2022/09/09 05:50:29;;;;;;;13.55;7.70;;;;;;;;;;4933115;29;20051;-82
2022/09/09 05:53:14;;;;;;;20.08;7.50;;;;;;;;;;4941270;29;20044;-81
2022/09/09 05:56:03;;;;;;;12.27;7.30;;;;;;;;;;4938279;29;20051;-81
2022/09/09 05:58:53;;;;;;;13.88;7.18;;;;;;;;;;4930776;29;20047;-81
2022/09/09 06:01:40;;;;;;;16.23;6.95;;;;;;;;;;4930685;29;20043;-81
2022/09/09 06:04:26;;;;;;;11.68;6.93;;;;;;;;;;4929946;29;20433;-81
2022/09/09 06:07:14;;;;;;;9.95;6.72;;;;;;;;;;4939341;29;20044;-82
2022/09/09 06:09:59;;;;;;;11.93;6.90;;;;;;;;;;4934854;29;20044;-82
2022/09/09 06:12:45;;;;;;;17.98;6.55;;;;;;;;;;4941797;29;20051;-81
2022/09/09 06:15:31;;;;;;;13.70;6.82;;;;;;;;;;4933560;29;20048;-80
2022/09/09 06:18:18;;;;;;;10.70;6.55;;;;;;;;;;4933221;29;20044;-80
2022/09/09 06:21:06;;;;;;;15.40;7.28;;;;;;;;;;4934740;29;20051;-81
2022/09/09 06:23:52;;;;;;;13.95;7.22;;;;;;;;;;4941756;29;20398;-79
2022/09/09 06:26:42;;;;;;;13.23;8.02;;;;;;;;;;4932425;29;20040;-81
2022/09/09 06:29:31;;;;;;;11.20;7.30;;;;;;;;;;4932858;29;20055;-80
2022/09/09 06:32:17;;;;;;;15.15;7.95;;;;;;;;;;4929850;29;20052;-81
2022/09/09 06:35:03;;;;;;;13.98;7.88;;;;;;;;;;4930160;29;20040;-81
2022/09/09 06:37:48;;;;;;;13.50;8.18;;;;;;;;;;4929687;29;20047;-80
2022/09/09 06:40:36;;;;;;;14.05;6.97;;;;;;;;;;4929203;29;20039;-80
2022/09/09 06:43:30;;;;;;;13.15;6.45;;;;;;;;;;4929801;29;20043;-81
2022/09/09 06:46:22;;;;;;;9.90;5.93;;;;;;;;;;4930093;29;20043;-81
2022/09/09 06:49:08;;;;;;;12.20;6.93;;;;;;;;;;4930549;29;20474;-81
2022/09/09 06:51:54;;;;;;;14.82;7.25;;;;;;;;;;4928208;29;20040;-81
2022/09/09 06:54:41;;;;;;;19.20;8.60;;;;;;;;;;4928938;29;20055;-81
2022/09/09 06:57:26;;;;;;;16.42;9.50;;;;;;;;;;4937783;29;20500;-80
2022/09/09 07:00:13;;;;;;;19.58;9.55;;;;;;;;;;4929498;29;20051;-80
2022/09/09 07:02:59;;;;;;;17.98;10.38;;;;;;;;;;4929314;29;20473;-81
2022/09/09 07:05:55;;;;;;;17.20;9.05;;;;;;;;;;4942602;29;20055;-80
2022/09/09 07:08:41;;;;;;;15.77;9.45;;;;;;;;;;4936790;29;20048;-80
2022/09/09 07:11:30;;;;;;;14.68;8.80;;;;;;;;;;4929387;29;20052;-79
2022/09/09 07:14:16;;;;;;;13.65;8.80;;;;;;;;;;4929406;29;20051;-78
2022/09/09 07:17:05;;;;;;;15.10;9.68;;;;;;;;;;4928886;29;20051;-77
2022/09/09 07:19:56;;;;;;;18.65;8.52;;;;;;;;;;4928966;29;20047;-77
2022/09/09 07:22:41;;;;;;;16.92;8.98;;;;;;;;;;4915493;29;20500;-77
2022/09/09 07:25:29;;;;;;;15.07;7.95;;;;;;;;;;4930263;29;20043;-80
2022/09/09 07:28:16;;;;;;;16.17;8.32;;;;;;;;;;4928859;29;20047;-79
2022/09/09 07:31:02;;;;;;;17.15;8.68;;;;;;;;;;4927244;29;20517;-79
2022/09/09 07:33:48;;;;;;;8.75;5.38;;;;;;;;;;4928526;29;20490;-80
2022/09/09 07:36:37;;;;;;;8.52;4.90;;;;;;;;;;4928324;29;20048;-80
2022/09/09 07:39:24;;;;;;;6.97;4.82;;;;;;;;;;4929099;29;20051;-79
2022/09/09 07:42:13;;;;;;;7.78;4.88;;;;;;;;;;4929288;29;20494;-80
2022/09/09 07:44:59;;;;;;;7.38;4.45;;;;;;;;;;4928559;29;20043;-78
2022/09/09 07:47:45;;;;;;;7.53;4.68;;;;;;;;;;4928932;29;20039;-77
2022/09/09 07:50:30;;;;;;;8.98;4.40;;;;;;;;;;4935783;29;20048;-79
2022/09/09 07:53:15;;;;;;;6.65;4.00;;;;;;;;;;4923282;29;20052;-79
2022/09/09 07:56:04;;;;;;;8.43;4.38;;;;;;;;;;4928542;29;20055;-78
2022/09/09 07:58:52;;;;;;;5.43;3.97;;;;;;;;;;4927825;29;20414;-79
2022/09/09 08:01:41;;;;;;;5.68;3.80;;;;;;;;;;4928652;29;20039;-76
2022/09/09 08:04:28;;;;;;;5.63;3.65;;;;;;;;;;4928372;29;20393;-78
2022/09/09 08:07:14;;;;;;;5.90;3.80;;;;;;;;;;4928355;29;20052;-78
2022/09/09 08:10:06;;;;;;;7.85;3.90;;;;;;;;;;4928493;29;20044;-79
2022/09/09 08:12:55;;;;;;;6.60;4.00;;;;;;;;;;4927865;29;20044;-80
2022/09/09 08:16:29;;;;;;;7.70;3.42;;;;;;;;;;4929733;29;20040;-80
2022/09/09 08:19:16;;;;;;;7.90;3.72;;;;;;;;;;4932796;29;20055;-78
2022/09/09 08:22:03;;;;;;;6.38;3.67;;;;;;;;;;4928622;29;20398;-78
2022/09/09 08:24:49;;;;;;;6.22;4.05;;;;;;;;;;4928529;29;20043;-79
2022/09/09 08:27:34;;;;;;;6.15;3.03;;;;;;;;;;4927826;29;20390;-78
2022/09/09 08:30:19;;;;;;;7.32;3.97;;;;;;;;;;4929123;29;20036;-78
2022/09/09 08:33:05;;;;;;;8.18;3.63;;;;;;;;;;4930170;29;20390;-76
2022/09/09 08:35:52;;;;;;;6.53;3.20;;;;;;;;;;4931437;29;20044;-78
2022/09/09 08:38:38;;;;;;;6.72;3.50;;;;;;;;;;4931376;29;20398;-77
2022/09/09 08:42:01;;;;;;;9.68;4.43;;;;;;;;;;4931796;29;20490;-76
2022/09/09 08:45:09;;;;;;;6.37;3.87;;;;;;;;;;4929278;29;20421;-80
2022/09/09 08:48:06;;;;;;;12.27;6.70;;;;;;;;;;4935667;29;20043;-82
2022/09/09 08:50:52;;;;;;;13.05;6.93;;;;;;;;;;4928039;29;20059;-82
2022/09/09 08:53:49;;;;;;;11.45;7.50;;;;;;;;;;4921561;29;20151;-82
2022/09/09 08:56:35;;;;;;;13.43;6.82;;;;;;;;;;4927402;29;20052;-82
2022/09/09 08:59:21;;;;;;;10.27;6.93;;;;;;;;;;4915215;29;20048;-82
2022/09/09 09:02:26;;;;;;;12.10;6.65;;;;;;;;;;4928137;29;20040;-83
2022/09/09 09:05:33;;;;;;;10.65;5.30;;;;;;;;;;4931740;29;20051;-78
2022/09/09 09:08:40;;;;;;;8.63;4.90;;;;;;;;;;4939310;29;20040;-78
2022/09/09 09:11:26;;;;;;;9.75;5.10;;;;;;;;;;4931598;29;20489;-78
2022/09/09 09:14:17;;;;;;;8.25;4.97;;;;;;;;;;4931852;29;20036;-77
2022/09/09 09:17:09;;;;;;;13.95;5.15;;;;;;;;;;4931113;29;20409;-79
2022/09/09 09:19:55;;;;;;;13.63;4.22;;;;;;;;;;4939147;29;20047;-79
2022/09/09 09:22:50;;;;;;;7.45;4.22;;;;;;;;;;4918714;29;20465;-79
2022/09/09 09:25:41;;;;;;;6.43;4.30;;;;;;;;;;4931008;29;20433;-79
2022/09/09 09:28:31;;;;;;;12.60;4.40;;;;;;;;;;4931488;29;20055;-79
2022/09/09 09:31:23;;;;;;;5.35;3.55;;;;;;;;;;4930746;29;20040;-79
2022/09/09 09:34:11;;;;;;;5.78;3.05;;;;;;;;;;4931286;29;20043;-80
2022/09/09 09:37:01;;;;;;;5.88;3.42;;;;;;;;;;4930969;29;20405;-80
2022/09/09 09:39:49;;;;;;;8.48;3.25;;;;;;;;;;4930698;29;20035;-79
2022/09/09 09:42:35;;;;;;;7.93;3.58;;;;;;;;;;4931212;29;20048;-78
2022/09/09 09:45:29;;;;;;;5.40;2.80;;;;;;;;;;4931529;29;20052;-80
2022/09/09 09:48:16;;;;;;;6.20;2.60;;;;;;;;;;4930873;29;20498;-81
2022/09/09 09:51:10;;;;;;;7.53;2.67;;;;;;;;;;4930892;29;20039;-80
2022/09/09 09:54:27;;;;;;;7.22;3.50;;;;;;;;;;4930344;29;20039;-80
2022/09/09 09:57:17;;;;;;;6.78;2.53;;;;;;;;;;4930523;29;20047;-80
2022/09/09 10:00:17;;;;;;;5.85;3.28;;;;;;;;;;4930373;29;20047;-79
2022/09/09 10:03:37;;;;;;;6.88;2.90;;;;;;;;;;4930731;29;20048;-81
2022/09/09 10:06:38;;;;;;;8.02;3.40;;;;;;;;;;4943272;29;20055;-82
2022/09/09 10:09:32;;;;;;;4.60;3.13;;;;;;;;;;4924242;29;20040;-81
2022/09/09 10:12:26;;;;;;;5.37;2.73;;;;;;;;;;4938393;29;20043;-81
2022/09/09 10:15:33;;;;;;;5.85;2.85;;;;;;;;;;4937649;29;20052;-80
2022/09/09 10:18:56;;;;;;;6.40;3.03;;;;;;;;;;4938447;29;20510;-80
2022/09/09 10:22:09;;;;;;;9.02;2.70;;;;;;;;;;4937570;29;20485;-81
2022/09/09 10:25:07;;;;;;;6.22;3.30;;;;;;;;;;4938382;29;20048;-80
2022/09/09 10:27:56;;;;;;;6.35;2.88;;;;;;;;;;4937486;29;20048;-80
2022/09/09 10:31:19;;;;;;;8.35;3.00;;;;;;;;;;4938082;29;20055;-79
2022/09/09 10:34:26;;;;;;;3.17;2.28;;;;;;;;;;4937330;29;20044;-79
2022/09/09 10:37:45;;;;;;;5.35;2.72;;;;;;;;;;4937768;29;20071;-80
2022/09/09 10:40:51;;;;;;;10.23;2.70;;;;;;;;;;4937980;29;20040;-80
2022/09/09 10:44:04;;;;;;;9.52;3.20;;;;;;;;;;4937496;29;20063;-81
2022/09/09 10:47:13;;;;;;;7.43;2.58;;;;;;;;;;4930088;29;20043;-79
2022/09/09 10:50:14;;;;;;;5.82;2.38;;;;;;;;;;4943154;29;20047;-78
2022/09/09 10:53:31;;;;;;;8.35;2.95;;;;;;;;;;4937260;29;20413;-80
2022/09/09 10:56:20;;;;;;;7.97;2.58;;;;;;;;;;4936893;29;20044;-77
2022/09/09 10:59:18;;;;;;;7.95;2.42;;;;;;;;;;4937686;29;20044;-77
2022/09/09 11:02:13;;;;;;;6.30;2.45;;;;;;;;;;4937830;29;20047;-77
2022/09/09 11:05:21;;;;;;;5.75;2.72;;;;;;;;;;4936954;29;20501;-78
2022/09/09 11:08:08;;;;;;;7.72;3.42;;;;;;;;;;4937252;29;20055;-77
2022/09/09 11:11:04;;;;;;;8.35;3.25;;;;;;;;;;4936391;29;20040;-77
2022/09/09 11:13:53;;;;;;;6.40;3.03;;;;;;;;;;4937274;29;20401;-77
2022/09/09 11:16:41;;;;;;;16.75;3.88;;;;;;;;;;4936635;29;20051;-81
2022/09/09 11:19:34;;;;;;;11.13;4.22;;;;;;;;;;4936999;29;20043;-79
2022/09/09 11:22:47;;;;;;;10.15;4.70;;;;;;;;;;4937348;29;20044;-79
2022/09/09 11:25:39;;;;;;;12.40;4.93;;;;;;;;;;4935772;29;20401;-79
2022/09/09 11:28:38;;;;;;;8.88;4.00;;;;;;;;;;4936995;29;20043;-77
2022/09/09 11:31:53;;;;;;;7.70;3.50;;;;;;;;;;4936188;29;20056;-77
2022/09/09 11:34:56;;;;;;;5.93;3.28;;;;;;;;;;4936477;29;20398;-78
2022/09/09 11:37:44;;;;;;;13.45;4.57;;;;;;;;;;4936673;29;20490;-80
2022/09/09 11:40:31;;;;;;;7.63;3.33;;;;;;;;;;4936582;29;20410;-77
2022/09/09 11:43:31;;;;;;;7.28;3.30;;;;;;;;;;4937241;29;20478;-78
2022/09/09 11:46:18;;;;;;;8.55;3.35;;;;;;;;;;4936051;29;20044;-76
2022/09/09 11:49:21;;;;;;;6.97;3.97;;;;;;;;;;4943261;29;20044;-76
2022/09/09 11:52:21;;;;;;;8.05;3.55;;;;;;;;;;4940290;29;20043;-77
2022/09/09 11:55:28;;;;;;;7.22;3.90;;;;;;;;;;4936230;29;20386;-78
2022/09/09 11:58:17;;;;;;;7.47;3.72;;;;;;;;;;4936181;29;20501;-76
2022/09/09 12:01:25;;;;;;;8.10;3.78;;;;;;;;;;4935834;29;20051;-77
2022/09/09 12:04:22;;;;;;;6.97;3.67;;;;;;;;;;4935926;29;20406;-77
2022/09/09 12:07:08;;;;;;;6.57;4.05;;;;;;;;;;4927875;29;20401;-77
2022/09/09 12:10:35;;;;;;;9.77;3.70;;;;;;;;;;4936141;29;20043;-77
2022/09/09 12:13:24;;;;;;;6.68;3.90;;;;;;;;;;4936346;29;20055;-77
2022/09/09 12:16:29;;;;;;;9.02;4.60;;;;;;;;;;4935272;29;20434;-77
2022/09/09 12:19:22;;;;;;;6.78;3.80;;;;;;;;;;4936099;29;20490;-77
2022/09/09 12:22:41;;;;;;;5.40;3.53;;;;;;;;;;4935749;29;20044;-78
2022/09/09 12:26:05;;;;;;;9.75;3.80;;;;;;;;;;4921560;29;20397;-78
2022/09/09 12:29:39;;;;;;;7.32;3.58;;;;;;;;;;4926204;29;20047;-77
2022/09/09 12:32:26;;;;;;;7.25;3.70;;;;;;;;;;4890047;29;20053;-78
2022/09/09 12:35:31;;;;;;;7.50;3.40;;;;;;;;;;4935557;29;20043;-77
2022/09/09 12:38:42;;;;;;;6.72;3.88;;;;;;;;;;4949675;29;20047;-80
2022/09/09 12:41:29;;;;;;;9.13;4.20;;;;;;;;;;4946209;29;20043;-78
2022/09/09 12:44:14;;;;;;;8.93;4.57;;;;;;;;;;4945649;29;20043;-80
2022/09/09 12:47:03;;;;;;;8.70;4.30;;;;;;;;;;4939618;29;20040;-80
2022/09/09 12:49:49;;;;;;;11.20;5.00;;;;;;;;;;4939069;29;20492;-80
2022/09/09 12:52:38;;;;;;;10.07;5.90;;;;;;;;;;4939155;29;20047;-80
2022/09/09 12:55:37;;;;;;;9.38;3.88;;;;;;;;;;4945776;29;20048;-78
2022/09/09 12:58:24;;;;;;;7.60;3.55;;;;;;;;;;4931132;29;20048;-78
2022/09/09 13:01:29;;;;;;;9.90;3.58;;;;;;;;;;4939104;29;20482;-77
2022/09/09 13:04:21;;;;;;;6.55;3.63;;;;;;;;;;4939050;29;20048;-78
2022/09/09 13:07:09;;;;;;;11.20;3.65;;;;;;;;;;4939446;29;20048;-78
2022/09/09 13:09:54;;;;;;;7.35;3.30;;;;;;;;;;4939433;29;20051;-80
2022/09/09 13:12:41;;;;;;;8.55;3.67;;;;;;;;;;4938545;29;20390;-80
2022/09/09 13:15:29;;;;;;;6.53;3.20;;;;;;;;;;4939106;29;20397;-79
2022/09/09 13:18:23;;;;;;;8.77;3.53;;;;;;;;;;4938744;29;20052;-80
2022/09/09 13:21:08;;;;;;;;;;;;;;;;;;4946518;29;20043;-80
2022/09/09 13:23:54;;;;;;;6.88;3.50;;;;;;;;;;4938815;29;19914;-79
2022/09/09 13:26:40;;;;;;;7.13;3.60;;;;;;;;;;4937779;29;20051;-81
2022/09/09 13:29:25;;;;;;;10.02;3.60;;;;;;;;;;4938535;29;20051;-80
2022/09/09 13:32:17;;;;;;;8.23;3.53;;;;;;;;;;4930545;29;20047;-79
2022/09/09 13:35:03;;;;;;;8.50;3.47;;;;;;;;;;4938793;29;20048;-80
2022/09/09 13:37:48;;;;;;;5.15;3.35;;;;;;;;;;4939166;29;20055;-80
2022/09/09 13:40:34;;;;;;;7.20;3.08;;;;;;;;;;4944803;29;20043;-80
2022/09/09 13:43:23;;;;;;;8.63;3.45;;;;;;;;;;4938872;29;20051;-79
2022/09/09 13:46:30;;;;;;;7.53;3.30;;;;;;;;;;4944580;29;20114;-80
2022/09/09 13:49:15;;;;;;;5.20;2.92;;;;;;;;;;4937765;29;20398;-80
2022/09/09 13:52:19;;;;;;;5.80;3.10;;;;;;;;;;4938434;29;20051;-80
2022/09/09 13:55:06;;;;;;;12.07;3.35;;;;;;;;;;4937375;29;20051;-81
2022/09/09 13:58:00;;;;;;;5.35;2.63;;;;;;;;;;4938249;29;20486;-80
2022/09/09 14:00:46;;;;;;;9.93;3.25;;;;;;;;;;4944555;29;20040;-80
2022/09/09 14:03:31;;;;;;;8.85;3.10;;;;;;;;;;4938338;29;20035;-79
2022/09/09 14:06:18;;;;;;;8.32;3.97;;;;;;;;;;4938143;29;20048;-79
2022/09/09 14:09:05;;;;;;;7.07;3.05;;;;;;;;;;4944872;29;20056;-82
2022/09/09 14:11:50;;;;;;;8.25;3.35;;;;;;;;;;4938435;29;20478;-78
2022/09/09 14:14:36;;;;;;;4.45;2.30;;;;;;;;;;4944039;29;20048;-78
2022/09/09 14:17:22;;;;;;;6.70;2.17;;;;;;;;;;4937645;29;20051;-79
2022/09/09 14:20:08;;;;;;;7.00;2.15;;;;;;;;;;4944281;29;20052;-79
2022/09/09 14:22:53;;;;;;;5.30;2.03;;;;;;;;;;4937296;29;20048;-79
2022/09/09 14:25:41;;;;;;;4.50;2.15;;;;;;;;;;4937608;29;20055;-79
2022/09/09 14:28:28;;;;;;;3.97;2.00;;;;;;;;;;4937791;29;20047;-80
2022/09/09 14:31:13;;;;;;;4.28;2.17;;;;;;;;;;4937927;29;20051;-79
2022/09/09 14:33:59;;;;;;;5.38;2.30;;;;;;;;;;4937035;29;20059;-80
2022/09/09 14:36:45;;;;;;;6.10;2.20;;;;;;;;;;4937365;29;20052;-80
2022/09/09 14:39:31;;;;;;;6.63;2.10;;;;;;;;;;4936200;29;20056;-79
2022/09/09 14:42:17;;;;;;;4.13;2.13;;;;;;;;;;4942829;29;20397;-78
2022/09/09 14:45:02;;;;;;;3.97;2.13;;;;;;;;;;4937685;29;20047;-79
2022/09/09 14:47:49;;;;;;;4.63;2.50;;;;;;;;;;4937525;29;20044;-80
2022/09/09 14:50:36;;;;;;;4.15;2.35;;;;;;;;;;4937761;29;20044;-80
2022/09/09 14:53:22;;;;;;;4.60;2.40;;;;;;;;;;4922965;29;20397;-79
2022/09/09 14:56:10;;;;;;;5.60;2.47;;;;;;;;;;4937778;29;20394;-78
2022/09/09 14:59:00;;;;;;;5.13;2.50;;;;;;;;;;4937594;29;20055;-79
2022/09/09 15:01:45;;;;;;;6.70;2.58;;;;;;;;;;4937713;29;20044;-79
2022/09/09 15:04:31;;;;;;;5.97;3.20;;;;;;;;;;4943534;29;20048;-79
2022/09/09 15:07:19;;;;;;;4.68;2.40;;;;;;;;;;4937376;29;20494;-79
2022/09/09 15:10:06;;;;;;;6.85;2.15;;;;;;;;;;4937640;29;20048;-78
2022/09/09 15:12:52;;;;;;;4.47;2.05;;;;;;;;;;4937248;29;20047;-79
2022/09/09 15:15:37;;;;;;;3.45;2.40;;;;;;;;;;4937274;29;20043;-79
2022/09/09 15:18:23;;;;;;;6.32;2.20;;;;;;;;;;4937694;29;20051;-79
2022/09/09 15:21:11;;;;;;;4.38;2.40;;;;;;;;;;4936989;29;20035;-79
2022/09/09 15:23:57;;;;;;;6.10;2.25;;;;;;;;;;4943282;29;20044;-79
2022/09/09 15:26:43;;;;;;;5.25;2.10;;;;;;;;;;4929201;29;20052;-80
2022/09/09 15:29:28;;;;;;;2.20;2.00;;;;;;;;;;4937294;29;20055;-79
2022/09/09 15:32:14;;;;;;;4.45;2.35;;;;;;;;;;4943673;29;20055;-81
2022/09/09 15:34:59;;;;;;;4.13;2.40;;;;;;;;;;4936837;29;20051;-79
2022/09/09 15:37:45;;;;;;;4.75;2.58;;;;;;;;;;4936538;29;20405;-79
2022/09/09 15:40:32;;;;;;;4.70;3.33;;;;;;;;;;4937101;29;20051;-81
2022/09/09 15:43:17;;;;;;;5.15;2.97;;;;;;;;;;4936702;29;20048;-79
2022/09/09 15:46:26;;;;;;;6.93;2.95;;;;;;;;;;4936608;29;20413;-79
2022/09/09 15:49:14;;;;;;;3.83;2.42;;;;;;;;;;4942930;29;20052;-80
2022/09/09 15:52:03;;;;;;;5.63;2.67;;;;;;;;;;4936443;29;20044;-80
2022/09/09 15:54:49;;;;;;;9.05;3.40;;;;;;;;;;4942656;29;20047;-80
2022/09/09 15:57:34;;;;;;;6.25;2.78;;;;;;;;;;4936186;29;20043;-79
2022/09/09 16:00:20;;;;;;;4.68;2.67;;;;;;;;;;4936036;29;20486;-77
2022/09/09 16:03:05;;;;;;;5.35;2.78;;;;;;;;;;4921374;29;20055;-77
2022/09/09 16:05:51;;;;;;;6.43;2.70;;;;;;;;;;4936029;29;20040;-77
2022/09/09 16:08:40;;;;;;;6.90;3.10;;;;;;;;;;4935788;29;20043;-77
2022/09/09 16:11:27;;;;;;;7.18;3.15;;;;;;;;;;4935443;29;20052;-77
2022/09/09 16:14:15;;;;;;;10.10;3.60;;;;;;;;;;4935989;29;20486;-78
2022/09/09 16:17:00;;;;;;;7.07;3.17;;;;;;;;;;4942447;29;20114;-78
2022/09/09 16:19:46;;;;;;;7.05;3.38;;;;;;;;;;4942344;29;20043;-75
2022/09/09 16:22:32;;;;;;;8.48;3.00;;;;;;;;;;4935896;29;20493;-76
2022/09/09 16:25:18;;;;;;;8.45;3.03;;;;;;;;;;4935933;29;20051;-77
2022/09/09 16:28:04;;;;;;;7.90;3.22;;;;;;;;;;4942143;29;20043;-78
2022/09/09 16:30:49;;;;;;;7.28;2.92;;;;;;;;;;4935793;29;20048;-78
2022/09/09 16:33:34;;;;;;;7.65;2.78;;;;;;;;;;4920992;29;20055;-78
2022/09/09 16:36:22;;;;;;;6.60;2.70;;;;;;;;;;4935508;29;20040;-77
2022/09/09 16:39:22;;;;;;;4.53;2.42;;;;;;;;;;4936711;29;20044;-79
2022/09/09 16:42:18;;;;;;;4.75;2.40;;;;;;;;;;4938266;29;20048;-82
2022/09/09 16:45:06;;;;;;;8.80;3.20;;;;;;;;;;4942138;29;20048;-80
2022/09/09 16:47:53;;;;;;;4.97;2.40;;;;;;;;;;4941853;29;20445;-79
2022/09/09 16:50:39;;;;;;;6.80;2.67;;;;;;;;;;4935823;29;20035;-79
2022/09/09 16:53:24;;;;;;;5.05;2.60;;;;;;;;;;4935572;29;20139;-78
2022/09/09 16:56:16;;;;;;;6.15;2.53;;;;;;;;;;4935895;29;20043;-79
2022/09/09 16:59:03;;;;;;;4.32;2.55;;;;;;;;;;4936205;29;20048;-78
2022/09/09 17:01:50;;;;;;;5.65;2.38;;;;;;;;;;4935841;29;20043;-79